Time;durP1;ratioP1;P1;durP2;ratioP2;P2;SDS_P1;SDS_P2;PMS_P1;PMS_P2;Temp;Humidity;BMP_temperature;BMP_pressure;BME280_temperature;BME280_humidity;BME280_pressure;Samples;Min_cycle;Max_cycle;Signal;HPM_P1;HPM_P2
2023/05/27 00:01:30;;;;;;;;;17.33;12.67;;;;;17.72;47.11;102010.88;5077611;27;45331;-39
2023/05/27 00:03:55;;;;;;;;;16.67;11.00;;;;;17.69;47.10;102013.88;5077946;27;45578;-38
2023/05/27 00:06:21;;;;;;;;;13.33;10.00;;;;;17.27;47.34;101943.94;5077534;27;46063;-42
2023/05/27 00:08:46;;;;;;;;;12.00;9.67;;;;;17.62;47.14;102005.63;5077486;27;45391;-39
2023/05/27 00:11:11;;;;;;;;;14.00;11.00;;;;;17.57;47.51;101999.03;5077255;27;45358;-40
2023/05/27 00:13:37;;;;;;;;;20.00;12.00;;;;;17.54;47.61;101997.53;5076373;28;45539;-39
2023/05/27 00:16:02;;;;;;;;;12.00;9.67;;;;;17.53;47.26;102006.59;5077667;27;46512;-40
2023/05/27 00:18:28;;;;;;;;;10.67;9.00;;;;;17.34;47.26;101980.78;5077532;27;45475;-42
2023/05/27 00:20:53;;;;;;;;;12.33;9.67;;;;;17.40;47.04;101996.28;5077658;27;45343;-40
2023/05/27 00:23:18;;;;;;;;;9.67;8.00;;;;;17.42;47.14;102009.56;5077414;27;45459;-41
2023/05/27 00:25:44;;;;;;;;;15.67;10.33;;;;;17.39;47.39;102005.34;5076920;27;48908;-42
2023/05/27 00:28:09;;;;;;;;;13.00;11.33;;;;;17.35;47.51;102001.28;5076795;27;45384;-42
2023/05/27 00:30:34;;;;;;;;;9.33;7.00;;;;;17.32;47.41;102000.75;5077012;27;45340;-41
2023/05/27 00:33:00;;;;;;;;;12.00;9.33;;;;;17.29;47.21;101996.56;5077194;27;45211;-41
2023/05/27 00:35:25;;;;;;;;;14.67;10.00;;;;;17.21;47.58;101981.22;5076933;27;45352;-40
2023/05/27 00:37:50;;;;;;;;;12.00;10.00;;;;;17.25;47.32;101986.28;5076862;27;45387;-41
2023/05/27 00:40:21;;;;;;;;;15.00;9.00;;;;;17.17;47.43;101977.16;5077042;27;45332;-40
2023/05/27 00:42:46;;;;;;;;;5.33;5.00;;;;;17.13;46.98;101978.50;5077131;27;45319;-38
2023/05/27 00:45:12;;;;;;;;;11.00;9.33;;;;;17.18;47.21;101978.00;5058479;28;47146;-39
2023/05/27 00:47:37;;;;;;;;;17.67;7.00;;;;;17.14;47.62;101977.47;5076840;27;45436;-39
2023/05/27 00:50:03;;;;;;;;;11.33;9.33;;;;;17.15;47.53;101981.88;5076883;27;45399;-40
2023/05/27 00:52:29;;;;;;;;;10.67;7.00;;;;;17.12;47.55;101982.19;5077454;27;45447;-39
2023/05/27 00:54:56;;;;;;;;;11.00;7.67;;;;;17.11;47.57;101974.28;5077062;28;45407;-37
2023/05/27 00:57:21;;;;;;;;;9.67;9.67;;;;;17.09;47.38;101970.91;5075870;27;45517;-39
2023/05/27 00:59:47;;;;;;;;;12.33;10.00;;;;;17.05;47.67;101973.06;5075609;28;45392;-40
2023/05/27 01:02:14;;;;;;;;;8.33;8.33;;;;;17.02;47.69;101967.16;5076792;27;45559;-39
2023/05/27 01:04:42;;;;;;;;;13.67;6.00;;;;;16.94;47.46;101968.81;5076413;27;46326;-39
2023/05/27 01:07:29;;;;;;;;;11.33;8.33;;;;;16.96;47.45;101972.16;5076590;27;45542;-39
2023/05/27 01:10:30;;;;;;;;;11.33;8.33;;;;;16.94;47.72;101974.19;5076330;27;45392;-39
2023/05/27 01:13:27;;;;;;;;;11.67;7.67;;;;;16.90;47.78;101969.28;5076291;27;45447;-38
2023/05/27 01:15:53;;;;;;;;;7.00;7.00;;;;;16.89;47.86;101978.34;5071848;28;46671;-39
2023/05/27 01:18:22;;;;;;;;;17.33;11.00;;;;;16.85;47.96;101971.59;5076154;27;45241;-40
2023/05/27 01:20:53;;;;;;;;;11.00;9.67;;;;;16.83;47.67;101974.44;5076588;27;45444;-38
2023/05/27 01:23:18;;;;;;;;;12.67;11.67;;;;;16.81;47.92;101983.66;5076692;27;45229;-39
2023/05/27 01:25:44;;;;;;;;;17.00;11.00;;;;;16.81;48.25;101975.59;5076090;27;46173;-40
2023/05/27 01:28:10;;;;;;;;;17.67;10.00;;;;;16.79;47.44;101969.53;5076180;27;45407;-39
2023/05/27 01:30:36;;;;;;;;;11.33;6.00;;;;;16.76;48.13;101972.53;5076166;27;45297;-39
2023/05/27 01:33:09;;;;;;;;;16.00;12.00;;;;;16.75;47.89;101970.84;5076567;27;45362;-39
2023/05/27 01:35:45;;;;;;;;;17.67;12.00;;;;;16.71;47.87;101971.13;5076054;27;46368;-39
2023/05/27 01:38:15;;;;;;;;;14.33;10.00;;;;;16.69;47.29;101962.41;5076395;27;45329;-38
2023/05/27 01:40:42;;;;;;;;;15.33;11.33;;;;;16.68;47.54;101975.97;5076598;27;45623;-39
2023/05/27 01:43:08;;;;;;;;;13.00;11.00;;;;;16.66;47.64;101972.59;5076351;28;45417;-38
2023/05/27 01:45:34;;;;;;;;;14.67;11.33;;;;;16.54;47.73;101953.22;5075901;27;46575;-38
2023/05/27 01:48:00;;;;;;;;;15.67;11.33;;;;;16.60;47.80;101962.47;5075834;28;45216;-38
2023/05/27 01:50:25;;;;;;;;;5.67;5.00;;;;;16.61;47.50;101961.50;5076325;27;45346;-39
2023/05/27 01:52:51;;;;;;;;;15.33;9.33;;;;;16.56;47.49;101961.97;5076192;27;45339;-38
2023/05/27 01:55:17;;;;;;;;;10.00;9.00;;;;;16.55;47.67;101965.63;5074586;28;46302;-39
2023/05/27 01:57:43;;;;;;;;;10.67;9.00;;;;;16.48;47.62;101958.38;5075853;27;45590;-39
2023/05/27 02:00:09;;;;;;;;;12.00;8.00;;;;;16.49;47.62;101965.44;5076121;27;45363;-40
2023/05/27 02:02:34;;;;;;;;;11.67;6.00;;;;;16.48;47.59;101961.06;5076273;27;45432;-38
2023/05/27 02:05:00;;;;;;;;;11.67;6.00;;;;;16.45;47.66;101960.34;5075759;27;46234;-39
2023/05/27 02:07:26;;;;;;;;;14.00;8.00;;;;;16.41;47.50;101950.94;5075762;27;45369;-38
2023/05/27 02:09:52;;;;;;;;;9.33;7.00;;;;;16.42;47.47;101959.81;5080544;27;45277;-38
2023/05/27 02:12:17;;;;;;;;;9.00;6.33;;;;;16.41;47.76;101960.81;5082352;27;45298;-39
2023/05/27 02:14:44;;;;;;;;;9.67;7.00;;;;;16.37;47.52;101957.59;5080975;28;46054;-37
2023/05/27 02:17:10;;;;;;;;;10.67;8.00;;;;;16.28;47.86;101945.13;5082250;27;45412;-40
2023/05/27 02:19:36;;;;;;;;;13.33;9.00;;;;;16.36;47.55;101965.81;5082496;27;45321;-39
2023/05/27 02:22:01;;;;;;;;;12.00;7.67;;;;;16.34;47.76;101959.75;5082686;27;45226;-39
2023/05/27 02:24:27;;;;;;;;;10.00;6.00;;;;;16.30;47.69;101950.31;5082000;27;46200;-39
2023/05/27 02:26:52;;;;;;;;;6.00;5.00;;;;;16.26;47.64;101955.16;5082330;27;45404;-38
2023/05/27 02:29:17;;;;;;;;;14.00;10.67;;;;;16.23;47.50;101951.94;5082132;27;45366;-39
2023/05/27 02:31:43;;;;;;;;;11.00;6.33;;;;;16.21;47.58;101954.78;5082540;27;45385;-40
2023/05/27 02:34:08;;;;;;;;;10.00;8.33;;;;;16.19;47.71;101951.41;5082226;27;45479;-44
2023/05/27 02:36:34;;;;;;;;;18.67;9.33;;;;;16.15;47.44;101958.94;5082069;27;45307;-40
2023/05/27 02:39:00;;;;;;;;;3.00;1.67;;;;;16.12;47.71;101958.38;5082340;27;45358;-38
2023/05/27 02:41:26;;;;;;;;;12.67;10.67;;;;;16.09;47.66;101964.06;5083037;27;45524;-40
2023/05/27 02:43:51;;;;;;;;;15.00;8.00;;;;;16.06;47.65;101953.66;5081851;27;46612;-40
2023/05/27 02:46:17;;;;;;;;;9.67;7.67;;;;;16.05;47.94;101950.09;5082127;28;45332;-39
2023/05/27 02:48:42;;;;;;;;;10.00;9.67;;;;;15.98;47.87;101935.63;5082227;27;45487;-39
2023/05/27 02:51:08;;;;;;;;;10.00;5.00;;;;;16.01;47.60;101940.66;5082259;27;45746;-39
2023/05/27 02:53:33;;;;;;;;;6.00;6.00;;;;;16.01;47.28;101942.50;5081990;27;45333;-38
2023/05/27 02:55:58;;;;;;;;;11.33;6.67;;;;;15.97;47.83;101936.63;5080514;28;45388;-39
2023/05/27 02:58:23;;;;;;;;;9.00;8.00;;;;;15.96;47.79;101940.28;5081833;27;45462;-39
2023/05/27 03:00:49;;;;;;;;;10.67;7.33;;;;;15.92;47.84;101945.09;5082082;28;45455;-41
2023/05/27 03:03:14;;;;;;;;;8.00;7.33;;;;;15.90;47.68;101935.53;5081611;27;47129;-39
2023/05/27 03:05:40;;;;;;;;;6.00;5.33;;;;;15.86;47.85;101939.50;5081864;27;45414;-40
2023/05/27 03:08:06;;;;;;;;;2.67;2.00;;;;;15.88;47.60;101940.19;5082050;27;45686;-40
2023/05/27 03:10:32;;;;;;;;;12.33;7.00;;;;;15.87;47.39;101936.66;5081826;27;45332;-40
2023/05/27 03:12:57;;;;;;;;;8.00;6.67;;;;;15.83;47.69;101943.34;5081231;27;45449;-38
2023/05/27 03:15:23;;;;;;;;;9.33;9.33;;;;;15.83;47.64;101942.50;5081456;28;45400;-38
2023/05/27 03:17:48;;;;;;;;;10.33;8.00;;;;;15.82;47.68;101938.13;5081836;27;45343;-39
2023/05/27 03:20:13;;;;;;;;;10.00;6.33;;;;;15.81;47.63;101939.97;5080581;27;45490;-37
2023/05/27 03:22:39;;;;;;;;;12.33;6.00;;;;;15.78;47.67;101934.91;5078022;27;46584;-39
2023/05/27 03:25:05;;;;;;;;;10.67;5.00;;;;;15.76;47.68;101938.72;5078372;27;45399;-39
2023/05/27 03:27:31;;;;;;;;;10.67;5.00;;;;;15.70;47.50;101935.66;5078141;27;45557;-38
2023/05/27 03:29:56;;;;;;;;;5.67;5.00;;;;;15.71;47.30;101928.44;5078243;27;45320;-39
2023/05/27 03:32:21;;;;;;;;;8.33;6.67;;;;;15.70;47.68;101932.97;5078003;27;45967;-41
2023/05/27 03:34:47;;;;;;;;;8.33;6.00;;;;;15.68;47.31;101940.34;5077956;27;45390;-42
2023/05/27 03:37:13;;;;;;;;;8.00;5.33;;;;;15.65;47.65;101940.63;5078183;27;45332;-41
2023/05/27 03:39:39;;;;;;;;;15.33;8.33;;;;;15.60;47.11;101932.16;5078382;27;45312;-42
2023/05/27 03:42:05;;;;;;;;;8.00;4.00;;;;;15.61;47.08;101933.00;5077720;27;47227;-42
2023/05/27 03:44:31;;;;;;;;;10.67;7.67;;;;;15.57;47.31;101932.47;5077616;27;45268;-41
2023/05/27 03:46:57;;;;;;;;;12.33;8.33;;;;;15.53;47.19;101930.22;5077702;27;45744;-42
2023/05/27 03:49:22;;;;;;;;;11.00;5.33;;;;;15.50;47.21;101936.72;5078006;27;45775;-39
2023/05/27 03:51:47;;;;;;;;;8.33;8.33;;;;;15.46;47.26;101929.97;5077967;27;46397;-40
2023/05/27 03:54:13;;;;;;;;;13.00;7.33;;;;;15.40;47.38;101933.25;5077703;27;45352;-40
2023/05/27 03:56:38;;;;;;;;;11.00;7.33;;;;;15.38;47.65;101933.44;5078309;27;45473;-39
2023/05/27 03:59:03;;;;;;;;;5.33;4.00;;;;;15.32;47.40;101919.75;5078165;27;45383;-39
2023/05/27 04:01:29;;;;;;;;;3.67;3.67;;;;;15.38;47.36;101940.59;5077746;28;48181;-38
2023/05/27 04:03:55;;;;;;;;;11.33;7.00;;;;;15.37;47.57;101941.59;5077607;28;45323;-38
2023/05/27 04:06:20;;;;;;;;;10.33;8.00;;;;;15.26;47.44;101917.69;5077929;27;45830;-39
2023/05/27 04:08:46;;;;;;;;;8.33;7.00;;;;;15.30;47.49;101927.97;5077756;27;45529;-40
2023/05/27 04:11:15;;;;;;;;;11.00;6.00;;;;;15.33;47.41;101941.03;5077172;27;46123;-41
2023/05/27 04:13:40;;;;;;;;;13.67;8.00;;;;;15.33;47.55;101940.22;5077281;27;45259;-39
2023/05/27 04:16:07;;;;;;;;;10.67;9.00;;;;;15.32;47.73;101938.53;5077642;27;45360;-39
2023/05/27 04:18:32;;;;;;;;;7.67;7.67;;;;;15.28;47.43;101939.81;5077715;27;45534;-38
2023/05/27 04:20:58;;;;;;;;;9.67;7.67;;;;;15.28;47.52;101934.44;5077322;27;45972;-39
2023/05/27 04:23:24;;;;;;;;;9.67;5.67;;;;;15.27;47.63;101944.34;5077388;27;45415;-38
2023/05/27 04:25:51;;;;;;;;;10.33;6.00;;;;;15.27;47.62;101956.91;5077600;27;45452;-41
2023/05/27 04:28:16;;;;;;;;;8.67;6.67;;;;;15.28;47.55;101947.84;5077460;27;45782;-40
2023/05/27 04:30:42;;;;;;;;;10.00;7.00;;;;;15.27;47.65;101946.19;5077135;27;45725;-39
2023/05/27 04:33:07;;;;;;;;;5.00;4.67;;;;;15.28;47.71;101950.53;5076089;27;45320;-39
2023/05/27 04:35:33;;;;;;;;;7.67;7.00;;;;;15.29;47.70;101944.19;5077295;27;45312;-40
2023/05/27 04:38:00;;;;;;;;;9.67;9.67;;;;;15.29;47.72;101946.84;5077407;27;45509;-39
2023/05/27 04:40:26;;;;;;;;;10.00;6.67;;;;;15.21;47.60;101920.78;5076832;27;46224;-39
2023/05/27 04:42:52;;;;;;;;;8.33;6.00;;;;;15.29;47.58;101941.50;5076912;27;45686;-40
2023/05/27 04:45:18;;;;;;;;;8.67;6.00;;;;;15.30;47.56;101938.69;5077137;27;45361;-40
2023/05/27 04:47:44;;;;;;;;;5.67;4.33;;;;;15.32;47.50;101938.53;5077249;27;45419;-41
2023/05/27 04:50:13;;;;;;;;;5.67;5.00;;;;;15.33;47.59;101938.38;5076924;27;45475;-40
2023/05/27 04:52:38;;;;;;;;;8.00;7.67;;;;;15.33;47.53;101932.16;5077235;27;45290;-41
2023/05/27 04:55:05;;;;;;;;;9.33;5.33;;;;;15.33;47.41;101927.66;5076785;27;45303;-41
2023/05/27 04:57:30;;;;;;;;;11.00;8.00;;;;;15.34;47.41;101934.72;5076974;27;45462;-40
2023/05/27 05:00:17;;;;;;;;;8.33;6.00;;;;;15.35;47.54;101935.56;5076664;27;45865;-38
2023/05/27 05:02:46;;;;;;;;;6.33;5.33;;;;;15.36;47.47;101929.19;5076672;27;45950;-41
2023/05/27 05:05:11;;;;;;;;;11.00;5.00;;;;;15.35;47.59;101930.19;5075462;28;45318;-39
2023/05/27 05:07:40;;;;;;;;;15.33;7.00;;;;;15.36;47.53;101934.56;5076873;27;45447;-40
2023/05/27 05:10:07;;;;;;;;;4.33;4.00;;;;;15.38;47.38;101932.56;5076411;27;46270;-42
2023/05/27 05:12:33;;;;;;;;;7.33;3.33;;;;;15.39;47.61;101935.09;5076177;27;45593;-42
2023/05/27 05:14:58;;;;;;;;;10.33;8.00;;;;;15.41;47.44;101933.09;5076392;27;45489;-40
2023/05/27 05:17:25;;;;;;;;;21.67;15.67;;;;;15.40;47.36;101927.91;5076919;27;45436;-42
2023/05/27 05:19:51;;;;;;;;;52.00;38.75;;;;;15.44;47.34;101931.97;5074968;27;45598;-41
2023/05/27 05:22:18;;;;;;;;;14.67;8.00;;;;;15.36;47.36;101916.63;5076121;28;45277;-41
2023/05/27 05:24:46;;;;;;;;;8.33;7.33;;;;;15.52;47.70;101944.66;5076360;27;45383;-39
2023/05/27 05:27:12;;;;;;;;;13.00;8.00;;;;;15.55;47.76;101942.50;5076499;27;45332;-45
2023/05/27 05:29:37;;;;;;;;;6.33;4.67;;;;;15.57;47.25;101932.47;5076002;28;46182;-43
2023/05/27 05:32:04;;;;;;;;;7.33;5.67;;;;;15.66;47.13;101942.31;5076014;27;45473;-41
2023/05/27 05:34:29;;;;;;;;;11.00;8.67;;;;;15.70;47.02;101938.34;5076487;27;45812;-41
2023/05/27 05:36:55;;;;;;;;;6.00;5.00;;;;;15.74;47.08;101940.72;5091944;27;45441;-41
2023/05/27 05:39:20;;;;;;;;;14.00;8.67;;;;;15.78;47.24;101940.25;5075869;28;45403;-42
2023/05/27 05:41:46;;;;;;;;;12.33;8.33;;;;;15.81;46.88;101937.28;5076007;27;45502;-47
2023/05/27 05:44:12;;;;;;;;;12.00;9.00;;;;;15.86;47.20;101942.19;5075392;27;45336;-44
2023/05/27 05:46:37;;;;;;;;;11.67;7.67;;;;;15.88;47.11;101937.50;5076514;27;45260;-44
2023/05/27 05:49:04;;;;;;;;;7.33;6.00;;;;;15.90;46.86;101933.69;5075783;27;46010;-41
2023/05/27 05:51:30;;;;;;;;;11.67;5.67;;;;;15.91;46.91;101937.22;5075520;27;45484;-46
2023/05/27 05:53:56;;;;;;;;;10.33;7.33;;;;;16.00;46.70;101944.34;5075962;27;45260;-47
2023/05/27 05:56:22;;;;;;;;;8.33;8.33;;;;;16.06;46.88;101948.28;5091439;27;45445;-41
2023/05/27 05:58:47;;;;;;;;;7.67;5.67;;;;;16.09;46.66;101940.72;5075546;27;46002;-43
2023/05/27 06:01:12;;;;;;;;;11.33;9.00;;;;;16.12;46.94;101937.75;5075385;27;45368;-47
2023/05/27 06:03:38;;;;;;;;;6.67;6.67;;;;;16.18;46.42;101950.56;5075805;27;45322;-45
2023/05/27 06:06:03;;;;;;;;;10.00;8.67;;;;;16.24;46.79;101942.91;5075839;27;45292;-46
2023/05/27 06:08:29;;;;;;;;;10.67;6.00;;;;;16.28;46.60;101942.44;5075227;27;47416;-41
2023/05/27 06:10:54;;;;;;;;;10.33;8.00;;;;;16.28;46.38;101945.13;5075399;27;45464;-41
2023/05/27 06:13:19;;;;;;;;;9.00;6.00;;;;;16.36;46.46;101944.34;5075609;27;45382;-44
2023/05/27 06:15:45;;;;;;;;;6.33;6.33;;;;;16.38;46.35;101940.47;5075844;27;45375;-45
2023/05/27 06:18:10;;;;;;;;;5.33;4.00;;;;;16.45;46.21;101938.03;5075211;27;46900;-48
2023/05/27 06:20:35;;;;;;;;;10.67;5.00;;;;;16.51;48.00;101941.94;5075545;27;45379;-47
2023/05/27 06:23:01;;;;;;;;;9.00;5.00;;;;;16.78;48.79;101938.31;5075548;27;45384;-44
2023/05/27 06:25:26;;;;;;;;;17.33;7.67;;;;;16.97;46.99;101946.13;5075528;27;45321;-48
2023/05/27 06:27:51;;;;;;;;;8.33;8.33;;;;;17.04;45.81;101940.97;5075369;27;45681;-43
2023/05/27 06:30:17;;;;;;;;;10.00;6.00;;;;;17.11;46.02;101945.56;5075281;27;45400;-46
2023/05/27 06:32:42;;;;;;;;;9.33;5.00;;;;;17.30;46.00;101935.53;5075463;27;45343;-47
2023/05/27 06:35:08;;;;;;;;;9.67;8.67;;;;;17.46;45.59;101943.69;5076005;27;45359;-44
2023/05/27 06:37:33;;;;;;;;;13.00;8.00;;;;;17.62;45.63;101943.75;5075489;27;45491;-44
2023/05/27 06:39:58;;;;;;;;;10.67;8.00;;;;;17.78;45.00;101942.13;5075428;27;45315;-42
2023/05/27 06:42:24;;;;;;;;;10.00;9.00;;;;;17.98;44.40;101939.97;5075582;27;45379;-46
2023/05/27 06:44:49;;;;;;;;;9.33;7.33;;;;;18.55;43.38;101924.66;5075588;27;45216;-45
2023/05/27 06:47:14;;;;;;;;;11.00;6.00;;;;;19.80;42.48;101914.94;5074894;27;48860;-43
2023/05/27 06:49:40;;;;;;;;;11.00;7.67;;;;;21.47;38.88;101921.97;5075226;27;45363;-43
2023/05/27 06:52:06;;;;;;;;;11.00;5.67;;;;;22.86;36.01;101922.44;5075198;27;45285;-44
2023/05/27 06:54:31;;;;;;;;;9.00;7.00;;;;;24.23;34.45;101913.31;5075408;27;45270;-45
2023/05/27 06:56:57;;;;;;;;;10.00;5.50;;;;;25.42;32.20;101906.84;5077047;27;46338;-41
2023/05/27 06:59:22;;;;;;;;;8.75;8.75;;;;;26.45;31.24;101910.16;5078709;27;45474;-47
2023/05/27 07:01:47;;;;;;;;;7.50;6.00;;;;;27.42;30.56;101899.41;5078643;27;45452;-44
2023/05/27 07:04:13;;;;;;;;;11.25;7.75;;;;;28.26;28.80;101904.91;5078824;27;45423;-44
2023/05/27 07:06:39;;;;;;;;;8.75;8.75;;;;;28.80;26.71;101902.91;5078629;28;45350;-46
2023/05/27 07:09:04;;;;;;;;;55.00;39.33;;;;;29.45;27.32;101890.84;5078404;27;45452;-46
2023/05/27 07:11:31;;;;;;;;;27.50;22.25;;;;;30.30;27.59;101904.50;5078622;27;45412;-47
2023/05/27 07:13:56;;;;;;;;;9.00;9.00;;;;;30.83;24.90;101901.41;5078918;27;45452;-43
2023/05/27 07:16:22;;;;;;;;;9.50;6.75;;;;;31.28;24.96;101893.78;5078418;27;46045;-46
2023/05/27 07:18:47;;;;;;;;;8.50;7.75;;;;;31.63;24.60;101897.16;5078400;27;45437;-46
2023/05/27 07:21:13;;;;;;;;;8.00;5.50;;;;;31.86;24.11;101896.03;5079136;27;45367;-44
2023/05/27 07:23:38;;;;;;;;;10.25;7.50;;;;;32.17;23.64;101880.59;5078900;27;45454;-43
2023/05/27 07:26:03;;;;;;;;;14.75;13.00;;;;;32.56;23.07;101869.31;5078068;27;47128;-42
2023/05/27 07:28:29;;;;;;;;;10.75;6.00;;;;;33.21;22.27;101874.31;5077139;28;45235;-42
2023/05/27 07:30:54;;;;;;;;;6.50;6.00;;;;;33.74;24.11;101863.09;5078180;27;45359;-43
2023/05/27 07:33:19;;;;;;;;;10.50;7.00;;;;;34.11;21.73;101875.84;5078521;27;45356;-48
2023/05/27 07:35:45;;;;;;;;;5.75;5.00;;;;;34.51;21.28;101869.41;5077936;27;45360;-44
2023/05/27 07:38:10;;;;;;;;;6.25;5.75;;;;;35.04;20.85;101866.22;5078211;27;45628;-43
2023/05/27 07:40:36;;;;;;;;;6.50;6.50;;;;;35.38;20.00;101853.28;5078386;27;45403;-43
2023/05/27 07:43:01;;;;;;;;;8.75;6.25;;;;;35.98;19.86;101856.72;5078116;27;45511;-40
2023/05/27 07:45:27;;;;;;;;;7.00;6.25;;;;;36.39;18.58;101855.50;5077992;27;46237;-40
2023/05/27 07:47:52;;;;;;;;;9.50;6.50;;;;;36.61;19.79;101857.75;5077884;27;45346;-41
2023/05/27 07:50:18;;;;;;;;;11.75;8.00;;;;;37.05;18.42;101857.50;5077974;27;45190;-41
2023/05/27 07:52:43;;;;;;;;;7.25;6.25;;;;;37.19;17.94;101852.03;5078217;27;45335;-41
2023/05/27 07:55:09;;;;;;;;;7.75;6.50;;;;;37.56;17.59;101864.28;5078052;27;46036;-46
2023/05/27 07:57:34;;;;;;;;;10.50;8.00;;;;;37.95;17.63;101861.94;5077759;27;45475;-44
2023/05/27 08:00:00;;;;;;;;;8.25;7.00;;;;;38.18;17.89;101854.59;5078035;27;45464;-41
2023/05/27 08:02:25;;;;;;;;;7.25;6.25;;;;;38.46;18.01;101862.16;5078265;27;45434;-41
2023/05/27 08:04:51;;;;;;;;;7.00;7.00;;;;;38.81;19.09;101866.19;5077447;27;45539;-42
2023/05/27 08:07:16;;;;;;;;;7.40;5.80;;;;;38.95;17.18;101855.88;5077319;27;45470;-40
2023/05/27 08:09:42;;;;;;;;;6.00;6.00;;;;;39.29;16.64;101866.53;5077740;27;45343;-43
2023/05/27 08:12:07;;;;;;;;;39.50;32.00;;;;;39.38;16.60;101859.06;5077918;27;45392;-41
2023/05/27 08:14:34;;;;;;;;;7.75;6.00;;;;;39.67;16.26;101846.69;5077529;27;46491;-41
2023/05/27 08:16:59;;;;;;;;;12.00;7.00;;;;;40.21;16.60;101846.69;5077573;27;45274;-41
2023/05/27 08:19:25;;;;;;;;;8.00;6.50;;;;;40.52;16.01;101835.47;5078110;27;45265;-42
2023/05/27 08:21:50;;;;;;;;;4.50;4.00;;;;;41.05;17.13;101838.09;5077717;27;45324;-41
2023/05/27 08:24:15;;;;;;;;;13.00;8.00;;;;;41.16;16.25;101840.56;5077430;28;46192;-43
2023/05/27 08:26:41;;;;;;;;;7.25;4.00;;;;;41.46;15.31;101839.59;5077241;27;45323;-41
2023/05/27 08:29:06;;;;;;;;;9.00;6.75;;;;;41.65;14.94;101842.03;5077718;27;45415;-41
2023/05/27 08:31:32;;;;;;;;;8.75;5.00;;;;;41.98;15.38;101838.69;5077319;27;45374;-47
2023/05/27 08:33:57;;;;;;;;;11.00;7.25;;;;;42.11;14.91;101834.84;5077335;27;46021;-41
2023/05/27 08:36:22;;;;;;;;;7.75;6.00;;;;;42.37;14.59;101829.16;5077334;27;45371;-46
2023/05/27 08:38:48;;;;;;;;;11.50;8.00;;;;;42.42;14.77;101828.97;5077097;27;45354;-43
2023/05/27 08:41:14;;;;;;;;;3.50;2.00;;;;;42.40;14.58;101822.09;5077508;27;45346;-47
2023/05/27 08:43:41;;;;;;;;;9.20;8.20;;;;;42.46;14.35;101820.72;5077594;27;45411;-48
2023/05/27 08:46:07;;;;;;;;;9.00;7.40;;;;;42.55;14.49;101829.88;5077859;27;45539;-46
2023/05/27 08:48:33;;;;;;;;;8.20;6.40;;;;;43.22;14.74;101825.31;5077059;27;45475;-43
2023/05/27 08:50:59;;;;;;;;;7.00;5.00;;;;;43.58;13.98;101824.69;5077297;27;45318;-42
2023/05/27 08:53:26;;;;;;;;;10.00;5.20;;;;;43.72;13.53;101813.97;5077068;27;46025;-41
2023/05/27 08:55:53;;;;;;;;;9.40;6.00;;;;;43.91;13.60;101807.00;5076862;27;45874;-41
2023/05/27 08:58:20;;;;;;;;;9.40;5.40;;;;;44.52;13.39;101807.03;5077277;27;45779;-41
2023/05/27 09:00:45;;;;;;;;;8.60;6.20;;;;;44.88;13.24;101811.78;5077388;27;46162;-40
2023/05/27 09:03:11;;;;;;;;;6.75;5.25;;;;;45.16;12.79;101811.81;5075424;27;47153;-41
2023/05/27 09:05:37;;;;;;;;;6.75;6.00;;;;;45.40;12.30;101808.09;5076952;27;45322;-42
2023/05/27 09:08:02;;;;;;;;;10.25;6.75;;;;;45.61;12.85;101807.88;5075723;28;45469;-42
2023/05/27 09:10:42;;;;;;;;;7.75;7.00;;;;;45.57;13.19;101808.97;5076971;27;45341;-41
2023/05/27 09:13:08;;;;;;;;;7.60;6.20;;;;;45.63;12.93;101799.06;5076778;27;46235;-44
2023/05/27 09:15:34;;;;;;;;;6.75;5.25;;;;;45.75;12.64;101796.19;5077081;27;45587;-47
2023/05/27 09:18:01;;;;;;;;;7.80;7.80;;;;;46.03;13.14;101791.31;5076224;27;45414;-41
2023/05/27 09:20:28;;;;;;;;;9.40;7.40;;;;;46.26;12.00;101799.91;5076496;27;45426;-42
2023/05/27 09:22:57;;;;;;;;;7.40;5.40;;;;;46.35;12.87;101798.91;5076445;27;46996;-40
2023/05/27 09:25:27;;;;;;;;;12.20;8.40;;;;;46.44;13.24;101791.91;5076559;27;45340;-41
2023/05/27 09:27:54;;;;;;;;;7.40;6.20;;;;;46.48;11.49;101781.56;5076871;27;45321;-41
2023/05/27 09:30:20;;;;;;;;;7.00;7.00;;;;;46.77;12.23;101780.19;5076731;27;45339;-41
2023/05/27 09:32:46;;;;;;;;;6.80;6.40;;;;;47.20;11.83;101777.44;5076024;27;46362;-44
2023/05/27 09:35:13;;;;;;;;;5.00;5.00;;;;;47.11;11.58;101782.50;5076431;27;45393;-41
2023/05/27 09:37:38;;;;;;;;;5.20;4.40;;;;;47.31;11.85;101767.22;5076538;27;45445;-40
2023/05/27 09:40:09;;;;;;;;;8.25;6.00;;;;;47.45;12.01;101764.69;5076748;27;45459;-41
2023/05/27 09:42:53;;;;;;;;;5.60;5.60;;;;;47.26;12.32;101761.88;5076143;27;47222;-42
2023/05/27 09:45:20;;;;;;;;;10.20;5.40;;;;;47.34;11.74;101757.22;5076074;27;45383;-41
2023/05/27 09:47:51;;;;;;;;;7.40;6.80;;;;;47.36;12.67;101746.38;5076139;27;45507;-41
2023/05/27 09:50:17;;;;;;;;;8.40;6.80;;;;;47.44;11.21;101743.31;5076496;27;45417;-42
2023/05/27 09:52:47;;;;;;;;;6.40;6.40;;;;;47.39;11.87;101754.09;5076108;28;46322;-42
2023/05/27 09:55:13;;;;;;;;;7.00;6.20;;;;;47.25;12.15;101749.78;5076191;27;45363;-47
2023/05/27 09:57:40;;;;;;;;;10.00;6.60;;;;;46.36;12.54;101733.84;5076099;27;45498;-43
2023/05/27 10:00:17;;;;;;;;;8.00;7.60;;;;;45.67;13.03;101741.78;5076261;27;45301;-41
2023/05/27 10:02:45;;;;;;;;;4.20;4.20;;;;;44.90;13.69;101741.25;5075812;27;46971;-42
2023/05/27 10:05:13;;;;;;;;;6.80;6.60;;;;;44.21;13.47;101731.91;5076170;27;45395;-42
2023/05/27 10:07:40;;;;;;;;;8.40;6.40;;;;;43.65;14.04;101735.25;5076270;27;45474;-44
2023/05/27 10:10:11;;;;;;;;;7.80;7.40;;;;;43.24;14.36;101725.81;5076436;27;45459;-42
2023/05/27 10:12:41;;;;;;;;;7.40;6.00;;;;;42.98;14.36;101736.41;5075791;27;45372;-41
2023/05/27 10:15:07;;;;;;;;;8.00;7.00;;;;;42.60;14.60;101732.59;5075969;27;45319;-41
2023/05/27 10:17:43;;;;;;;;;12.60;10.00;;;;;42.07;14.93;101733.25;5075843;27;45454;-43
2023/05/27 10:20:09;;;;;;;;;10.00;7.80;;;;;41.66;15.21;101731.09;5076227;27;45371;-42
2023/05/27 10:22:46;;;;;;;;;9.00;6.40;;;;;41.08;15.65;101722.19;5075590;27;47075;-42
2023/05/27 10:25:13;;;;;;;;;10.80;6.00;;;;;40.57;15.95;101724.63;5075475;27;45499;-40
2023/05/27 10:27:43;;;;;;;;;8.80;6.80;;;;;40.17;16.59;101720.28;5074738;27;45365;-41
2023/05/27 10:30:09;;;;;;;;;7.60;5.20;;;;;39.85;16.78;101728.66;5077153;27;45488;-42
2023/05/27 10:32:43;;;;;;;;;4.00;4.00;;;;;39.53;17.12;101715.88;5078709;27;46221;-41
2023/05/27 10:35:08;;;;;;;;;8.20;8.20;;;;;39.31;17.14;101722.25;5079199;27;45447;-41
2023/05/27 10:37:34;;;;;;;;;6.00;6.00;;;;;39.01;17.56;101720.22;5078115;28;45349;-42
2023/05/27 10:39:59;;;;;;;;;12.25;8.00;;;;;38.70;17.40;101726.50;5079193;27;45327;-41
2023/05/27 10:42:25;;;;;;;;;8.50;7.75;;;;;38.52;18.20;101719.97;5079189;27;46109;-41
2023/05/27 10:45:04;;;;;;;;;7.00;7.00;;;;;38.31;18.06;101716.78;5079172;27;45259;-45
2023/05/27 10:47:29;;;;;;;;;8.80;6.40;;;;;38.17;18.25;101714.00;5079063;27;45508;-42
2023/05/27 10:49:57;;;;;;;;;12.00;7.75;;;;;37.91;18.68;101712.88;5079280;27;45355;-40
2023/05/27 10:52:25;;;;;;;;;9.40;6.40;;;;;37.66;18.33;101701.09;5078566;27;46878;-44
2023/05/27 10:54:52;;;;;;;;;9.40;6.20;;;;;37.26;19.31;101696.28;5078796;27;45369;-43
2023/05/27 10:57:18;;;;;;;;;8.80;6.80;;;;;36.64;19.53;101690.84;5078920;27;45436;-41
2023/05/27 10:59:52;;;;;;;;;9.00;7.75;;;;;35.88;20.24;101687.91;5078940;27;45480;-41
2023/05/27 11:02:18;;;;;;;;;9.20;6.20;;;;;35.29;20.70;101691.78;5078361;27;46272;-41
2023/05/27 11:04:43;;;;;;;;;8.00;7.00;;;;;34.57;21.66;101685.94;5078246;27;45264;-44
2023/05/27 11:07:09;;;;;;;;;9.75;6.75;;;;;33.74;21.59;101680.97;5078892;27;45418;-44
2023/05/27 11:09:49;;;;;;;;;8.50;6.75;;;;;32.90;23.16;101682.34;5079374;27;45576;-42
2023/05/27 11:12:18;;;;;;;;;11.20;6.60;;;;;32.17;23.84;101677.72;5077816;27;46243;-45
2023/05/27 11:14:48;;;;;;;;;8.40;6.80;;;;;31.61;24.46;101665.56;5078400;27;45332;-42
2023/05/27 11:17:14;;;;;;;;;11.40;9.40;;;;;31.17;25.72;101671.25;5078517;27;45412;-44